sensor_id;sensor_type;location;lat;lon;timestamp;pressure;altitude;pressure_sealevel;temperature;humidity
15932;BME280;8065;49.520;11.284;2022-08-03T00:00:52;97572.25;;;21.57;80.22
15932;BME280;8065;49.520;11.284;2022-08-03T00:03:19;97575.75;;;21.54;80.09
15932;BME280;8065;49.520;11.284;2022-08-03T00:05:45;97578.84;;;21.42;80.05
15932;BME280;8065;49.520;11.284;2022-08-03T00:08:12;97573.44;;;21.49;79.69
15932;BME280;8065;49.520;11.284;2022-08-03T00:10:38;97575.34;;;21.45;79.53
15932;BME280;8065;49.520;11.284;2022-08-03T00:13:06;97573.81;;;21.44;79.80
15932;BME280;8065;49.520;11.284;2022-08-03T00:15:33;97569.19;;;21.41;79.70
15932;BME280;8065;49.520;11.284;2022-08-03T00:17:59;97575.69;;;21.18;80.64
15932;BME280;8065;49.520;11.284;2022-08-03T00:20:26;97573.38;;;21.13;80.37
15932;BME280;8065;49.520;11.284;2022-08-03T00:22:53;97577.25;;;21.19;79.90
15932;BME280;8065;49.520;11.284;2022-08-03T00:25:19;97581.47;;;21.03;80.55
15932;BME280;8065;49.520;11.284;2022-08-03T00:27:46;97573.38;;;21.20;79.92
15932;BME280;8065;49.520;11.284;2022-08-03T00:30:14;97576.13;;;21.24;80.19
15932;BME280;8065;49.520;11.284;2022-08-03T00:32:40;97574.19;;;21.24;79.92
15932;BME280;8065;49.520;11.284;2022-08-03T00:35:08;97568.78;;;21.24;79.98
15932;BME280;8065;49.520;11.284;2022-08-03T00:37:34;97571.44;;;21.07;80.86
15932;BME280;8065;49.520;11.284;2022-08-03T00:40:01;97574.53;;;21.12;79.92
15932;BME280;8065;49.520;11.284;2022-08-03T00:42:28;97575.69;;;21.18;79.81
15932;BME280;8065;49.520;11.284;2022-08-03T00:44:54;97578.00;;;21.16;79.63
15932;BME280;8065;49.520;11.284;2022-08-03T00:47:22;97576.47;;;21.08;79.41
15932;BME280;8065;49.520;11.284;2022-08-03T00:49:49;97578.78;;;21.10;79.53
15932;BME280;8065;49.520;11.284;2022-08-03T00:52:15;97577.22;;;21.12;79.50
15932;BME280;8065;49.520;11.284;2022-08-03T00:54:42;97581.84;;;21.05;80.04
15932;BME280;8065;49.520;11.284;2022-08-03T00:57:09;97579.53;;;21.03;79.96
15932;BME280;8065;49.520;11.284;2022-08-03T00:59:35;97581.47;;;20.99;79.79
15932;BME280;8065;49.520;11.284;2022-08-03T01:02:04;97588.78;;;20.99;79.91
15932;BME280;8065;49.520;11.284;2022-08-03T01:04:32;97576.81;;;20.96;79.64
15932;BME280;8065;49.520;11.284;2022-08-03T01:07:04;97582.59;;;20.91;79.52
15932;BME280;8065;49.520;11.284;2022-08-03T01:09:40;97582.22;;;20.89;79.50
15932;BME280;8065;49.520;11.284;2022-08-03T01:12:13;97580.25;;;20.82;79.71
15932;BME280;8065;49.520;11.284;2022-08-03T01:14:50;97573.31;;;20.71;80.52
15932;BME280;8065;49.520;11.284;2022-08-03T01:17:24;97577.53;;;20.61;81.36
15932;BME280;8065;49.520;11.284;2022-08-03T01:19:59;97582.03;;;20.36;82.53
15932;BME280;8065;49.520;11.284;2022-08-03T01:22:50;97581.25;;;20.35;82.09
15932;BME280;8065;49.520;11.284;2022-08-03T01:25:27;97575.91;;;20.39;82.12
15932;BME280;8065;49.520;11.284;2022-08-03T01:28:01;97574.00;;;20.43;81.50
15932;BME280;8065;49.520;11.284;2022-08-03T01:30:39;97579.41;;;20.46;81.31
15932;BME280;8065;49.520;11.284;2022-08-03T01:33:12;97570.13;;;20.40;81.31
15932;BME280;8065;49.520;11.284;2022-08-03T01:35:44;97568.50;;;20.32;80.99
15932;BME280;8065;49.520;11.284;2022-08-03T01:38:14;97575.81;;;20.28;81.44
15932;BME280;8065;49.520;11.284;2022-08-03T01:40:43;97571.91;;;20.15;82.27
15932;BME280;8065;49.520;11.284;2022-08-03T01:43:15;97569.53;;;20.03;82.76
15932;BME280;8065;49.520;11.284;2022-08-03T01:45:44;97569.84;;;19.94;83.20
15932;BME280;8065;49.520;11.284;2022-08-03T01:48:15;97561.69;;;19.76;83.92
15932;BME280;8065;49.520;11.284;2022-08-03T01:50:44;97561.69;;;19.76;83.84
15932;BME280;8065;49.520;11.284;2022-08-03T01:53:13;97559.41;;;19.82;83.84
15932;BME280;8065;49.520;11.284;2022-08-03T01:55:41;97562.94;;;19.89;83.68
15932;BME280;8065;49.520;11.284;2022-08-03T01:58:09;97557.53;;;19.89;83.51
15932;BME280;8065;49.520;11.284;2022-08-03T02:00:37;97558.63;;;19.81;84.36
15932;BME280;8065;49.520;11.284;2022-08-03T02:03:06;97558.28;;;19.86;84.45
15932;BME280;8065;49.520;11.284;2022-08-03T02:05:34;97562.84;;;19.75;85.72
15932;BME280;8065;49.520;11.284;2022-08-03T02:08:03;97558.25;;;19.79;84.61
15932;BME280;8065;49.520;11.284;2022-08-03T02:10:32;97560.50;;;19.70;84.95
15932;BME280;8065;49.520;11.284;2022-08-03T02:13:02;97558.16;;;19.69;84.76
15932;BME280;8065;49.520;11.284;2022-08-03T02:15:31;97559.66;;;19.62;85.23
15932;BME280;8065;49.520;11.284;2022-08-03T02:17:59;97564.25;;;19.58;85.26
15932;BME280;8065;49.520;11.284;2022-08-03T02:20:29;97559.53;;;19.48;86.24
15932;BME280;8065;49.520;11.284;2022-08-03T02:22:57;97558.75;;;19.48;86.48
15932;BME280;8065;49.520;11.284;2022-08-03T02:25:24;97566.47;;;19.49;86.48
15932;BME280;8065;49.520;11.284;2022-08-03T02:27:57;97562.53;;;19.40;86.66
15932;BME280;8065;49.520;11.284;2022-08-03T02:30:38;97566.44;;;19.46;86.38
15932;BME280;8065;49.520;11.284;2022-08-03T02:33:10;97568.66;;;19.33;86.86
15932;BME280;8065;49.520;11.284;2022-08-03T02:35:40;97565.13;;;19.25;86.66
15932;BME280;8065;49.520;11.284;2022-08-03T02:38:10;97560.94;;;19.31;86.63
15932;BME280;8065;49.520;11.284;2022-08-03T02:40:39;97557.94;;;19.40;86.43
15932;BME280;8065;49.520;11.284;2022-08-03T02:43:10;97558.72;;;19.41;86.38
15932;BME280;8065;49.520;11.284;2022-08-03T02:45:41;97558.28;;;19.35;86.59
15932;BME280;8065;49.520;11.284;2022-08-03T02:48:09;97557.84;;;19.29;86.80
15932;BME280;8065;49.520;11.284;2022-08-03T02:50:38;97561.56;;;19.14;86.92
15932;BME280;8065;49.520;11.284;2022-08-03T02:53:06;97566.84;;;19.00;87.34
15932;BME280;8065;49.520;11.284;2022-08-03T02:55:34;97559.78;;;18.85;87.82
15932;BME280;8065;49.520;11.284;2022-08-03T02:58:02;97563.41;;;18.66;88.28
15932;BME280;8065;49.520;11.284;2022-08-03T03:00:29;97558.66;;;18.56;88.89
15932;BME280;8065;49.520;11.284;2022-08-03T03:02:57;97553.16;;;18.45;89.53
15932;BME280;8065;49.520;11.284;2022-08-03T03:05:24;97560.78;;;18.40;90.10
15932;BME280;8065;49.520;11.284;2022-08-03T03:07:52;97558.47;;;18.38;90.24
15932;BME280;8065;49.520;11.284;2022-08-03T03:10:20;97562.38;;;18.44;89.90
15932;BME280;8065;49.520;11.284;2022-08-03T03:12:49;97560.91;;;18.50;89.65
15932;BME280;8065;49.520;11.284;2022-08-03T03:15:16;97562.13;;;18.56;89.60
15932;BME280;8065;49.520;11.284;2022-08-03T03:17:43;97567.63;;;18.63;89.29
15932;BME280;8065;49.520;11.284;2022-08-03T03:20:10;97561.81;;;18.61;89.78
15932;BME280;8065;49.520;11.284;2022-08-03T03:22:38;97566.56;;;18.72;88.98
15932;BME280;8065;49.520;11.284;2022-08-03T03:25:08;97564.63;;;18.72;88.90
15932;BME280;8065;49.520;11.284;2022-08-03T03:27:35;97568.09;;;18.73;88.79
15932;BME280;8065;49.520;11.284;2022-08-03T03:30:02;97566.22;;;18.77;89.01
15932;BME280;8065;49.520;11.284;2022-08-03T03:32:29;97581.81;;;18.60;89.37
15932;BME280;8065;49.520;11.284;2022-08-03T03:34:57;97575.28;;;18.61;89.46
15932;BME280;8065;49.520;11.284;2022-08-03T03:37:25;97566.38;;;18.57;89.28
15932;BME280;8065;49.520;11.284;2022-08-03T03:39:52;97569.53;;;18.63;88.79
15932;BME280;8065;49.520;11.284;2022-08-03T03:42:20;97577.78;;;18.47;89.44
15932;BME280;8065;49.520;11.284;2022-08-03T03:44:47;97575.50;;;18.49;89.08
15932;BME280;8065;49.520;11.284;2022-08-03T03:47:14;97574.78;;;18.52;88.96
15932;BME280;8065;49.520;11.284;2022-08-03T03:49:41;97576.94;;;18.40;89.27
15932;BME280;8065;49.520;11.284;2022-08-03T03:52:08;97575.06;;;18.44;89.01
15932;BME280;8065;49.520;11.284;2022-08-03T03:54:39;97578.34;;;18.30;89.59
15932;BME280;8065;49.520;11.284;2022-08-03T03:57:06;97574.00;;;18.22;89.69
15932;BME280;8065;49.520;11.284;2022-08-03T03:59:37;97579.00;;;18.20;89.86
15932;BME280;8065;49.520;11.284;2022-08-03T04:02:04;97577.53;;;18.26;89.68
15932;BME280;8065;49.520;11.284;2022-08-03T04:04:31;97570.59;;;18.25;90.06
15932;BME280;8065;49.520;11.284;2022-08-03T04:07:16;97574.88;;;18.29;89.66
15932;BME280;8065;49.520;11.284;2022-08-03T04:10:01;97574.50;;;18.31;90.22
15932;BME280;8065;49.520;11.284;2022-08-03T04:12:52;97575.75;;;18.37;89.55
15932;BME280;8065;49.520;11.284;2022-08-03T04:15:21;97583.91;;;18.44;89.45
15932;BME280;8065;49.520;11.284;2022-08-03T04:17:51;97579.75;;;18.50;88.83
15932;BME280;8065;49.520;11.284;2022-08-03T04:20:20;97575.63;;;18.60;88.56
15932;BME280;8065;49.520;11.284;2022-08-03T04:22:50;97590.19;;;18.55;88.91
15932;BME280;8065;49.520;11.284;2022-08-03T04:25:20;97584.81;;;18.55;88.58
15932;BME280;8065;49.520;11.284;2022-08-03T04:27:49;97581.81;;;18.60;88.20
15932;BME280;8065;49.520;11.284;2022-08-03T04:30:17;97584.91;;;18.62;88.49
15932;BME280;8065;49.520;11.284;2022-08-03T04:32:46;97590.09;;;18.48;89.27
15932;BME280;8065;49.520;11.284;2022-08-03T04:35:16;97590.84;;;18.45;89.25
15932;BME280;8065;49.520;11.284;2022-08-03T04:37:45;97587.31;;;18.41;89.89
15932;BME280;8065;49.520;11.284;2022-08-03T04:40:14;97591.66;;;18.49;89.35
15932;BME280;8065;49.520;11.284;2022-08-03T04:42:45;97590.19;;;18.55;89.37
15932;BME280;8065;49.520;11.284;2022-08-03T04:45:14;97593.44;;;18.68;88.91
15932;BME280;8065;49.520;11.284;2022-08-03T04:47:41;97595.75;;;18.70;88.56
15932;BME280;8065;49.520;11.284;2022-08-03T04:50:10;97606.63;;;18.77;88.68
15932;BME280;8065;49.520;11.284;2022-08-03T04:52:37;97595.91;;;18.84;88.35
15932;BME280;8065;49.520;11.284;2022-08-03T04:55:05;97604.47;;;18.93;88.44
15932;BME280;8065;49.520;11.284;2022-08-03T04:57:32;97604.81;;;18.88;88.68
15932;BME280;8065;49.520;11.284;2022-08-03T04:59:58;97595.19;;;18.87;88.86
15932;BME280;8065;49.520;11.284;2022-08-03T05:02:25;97597.53;;;18.92;88.44
15932;BME280;8065;49.520;11.284;2022-08-03T05:04:51;97607.59;;;18.95;88.07
15932;BME280;8065;49.520;11.284;2022-08-03T05:07:19;97603.03;;;19.03;88.18
15932;BME280;8065;49.520;11.284;2022-08-03T05:09:46;97603.06;;;19.06;87.87
15932;BME280;8065;49.520;11.284;2022-08-03T05:12:13;97602.34;;;19.13;87.67
15932;BME280;8065;49.520;11.284;2022-08-03T05:14:39;97608.63;;;19.27;87.14
15932;BME280;8065;49.520;11.284;2022-08-03T05:17:06;97603.31;;;19.35;86.93
15932;BME280;8065;49.520;11.284;2022-08-03T05:19:33;97604.28;;;19.53;86.07
15932;BME280;8065;49.520;11.284;2022-08-03T05:22:00;97609.72;;;19.60;86.13
15932;BME280;8065;49.520;11.284;2022-08-03T05:24:28;97613.25;;;19.68;86.16
15932;BME280;8065;49.520;11.284;2022-08-03T05:26:55;97608.69;;;19.75;85.57
15932;BME280;8065;49.520;11.284;2022-08-03T05:29:22;97617.53;;;19.72;85.85
15932;BME280;8065;49.520;11.284;2022-08-03T05:31:48;97614.47;;;19.77;85.75
15932;BME280;8065;49.520;11.284;2022-08-03T05:34:15;97615.72;;;19.90;85.38
15932;BME280;8065;49.520;11.284;2022-08-03T05:36:41;97617.66;;;19.97;85.25
15932;BME280;8065;49.520;11.284;2022-08-03T05:39:08;97616.94;;;20.04;84.92
15932;BME280;8065;49.520;11.284;2022-08-03T05:41:36;97611.59;;;20.11;85.25
15932;BME280;8065;49.520;11.284;2022-08-03T05:44:03;97614.63;;;20.06;85.25
15932;BME280;8065;49.520;11.284;2022-08-03T05:46:30;97618.94;;;20.17;85.07
15932;BME280;8065;49.520;11.284;2022-08-03T05:48:57;97621.72;;;20.28;84.73
15932;BME280;8065;49.520;11.284;2022-08-03T05:51:24;97619.41;;;20.34;84.77
15932;BME280;8065;49.520;11.284;2022-08-03T05:53:50;97614.88;;;20.41;84.29
15932;BME280;8065;49.520;11.284;2022-08-03T05:56:20;97625.66;;;20.41;85.12
15932;BME280;8065;49.520;11.284;2022-08-03T05:58:49;97619.56;;;20.58;84.47
15932;BME280;8065;49.520;11.284;2022-08-03T06:01:16;97621.50;;;20.61;83.25
15932;BME280;8065;49.520;11.284;2022-08-03T06:03:43;97626.16;;;20.65;83.82
15932;BME280;8065;49.520;11.284;2022-08-03T06:06:09;97616.53;;;20.81;83.28
15932;BME280;8065;49.520;11.284;2022-08-03T06:08:36;97609.63;;;20.91;83.27
15932;BME280;8065;49.520;11.284;2022-08-03T06:11:03;97615.03;;;20.94;83.04
15932;BME280;8065;49.520;11.284;2022-08-03T06:13:30;97618.16;;;21.07;82.96
15932;BME280;8065;49.520;11.284;2022-08-03T06:15:58;97623.63;;;21.21;83.06
15932;BME280;8065;49.520;11.284;2022-08-03T06:18:24;97625.19;;;21.33;82.84
15932;BME280;8065;49.520;11.284;2022-08-03T06:20:51;97629.06;;;21.43;82.38
15932;BME280;8065;49.520;11.284;2022-08-03T06:23:18;97624.41;;;21.47;82.21
15932;BME280;8065;49.520;11.284;2022-08-03T06:25:45;97619.78;;;21.58;82.08
15932;BME280;8065;49.520;11.284;2022-08-03T06:28:12;97622.06;;;21.70;82.69
15932;BME280;8065;49.520;11.284;2022-08-03T06:30:39;97625.94;;;21.87;82.09
15932;BME280;8065;49.520;11.284;2022-08-03T06:33:07;97618.19;;;22.00;81.62
15932;BME280;8065;49.520;11.284;2022-08-03T06:35:34;97618.97;;;22.11;81.14
15932;BME280;8065;49.520;11.284;2022-08-03T06:38:01;97620.50;;;22.22;81.45
15932;BME280;8065;49.520;11.284;2022-08-03T06:40:28;97620.47;;;22.33;80.82
15932;BME280;8065;49.520;11.284;2022-08-03T06:42:55;97611.94;;;22.38;80.22
15932;BME280;8065;49.520;11.284;2022-08-03T06:45:22;97619.63;;;22.50;80.67
15932;BME280;8065;49.520;11.284;2022-08-03T06:47:59;97621.50;;;22.61;79.64
15932;BME280;8065;49.520;11.284;2022-08-03T06:50:27;97618.75;;;22.68;79.67
15932;BME280;8065;49.520;11.284;2022-08-03T06:52:54;97615.25;;;22.78;80.21
15932;BME280;8065;49.520;11.284;2022-08-03T06:55:20;97620.19;;;22.97;79.60
15932;BME280;8065;49.520;11.284;2022-08-03T06:57:47;97617.78;;;23.13;79.38
15932;BME280;8065;49.520;11.284;2022-08-03T07:00:14;97614.59;;;23.29;79.38
15932;BME280;8065;49.520;11.284;2022-08-03T07:02:40;97619.84;;;23.47;78.86
15932;BME280;8065;49.520;11.284;2022-08-03T07:05:08;97620.91;;;23.64;79.39
15932;BME280;8065;49.520;11.284;2022-08-03T07:07:37;97621.13;;;23.83;77.35
15932;BME280;8065;49.520;11.284;2022-08-03T07:10:04;97624.91;;;23.97;75.52
15932;BME280;8065;49.520;11.284;2022-08-03T07:12:32;97620.97;;;24.01;75.09
15932;BME280;8065;49.520;11.284;2022-08-03T07:15:00;97618.53;;;24.14;74.94
15932;BME280;8065;49.520;11.284;2022-08-03T07:17:27;97620.66;;;24.33;74.86
15932;BME280;8065;49.520;11.284;2022-08-03T07:19:54;97623.63;;;24.46;74.65
15932;BME280;8065;49.520;11.284;2022-08-03T07:22:20;97618.06;;;24.57;75.29
15932;BME280;8065;49.520;11.284;2022-08-03T07:24:49;97622.63;;;24.63;74.68
15932;BME280;8065;49.520;11.284;2022-08-03T07:27:15;97622.94;;;24.69;73.41
15932;BME280;8065;49.520;11.284;2022-08-03T07:29:42;97616.63;;;24.79;72.74
15932;BME280;8065;49.520;11.284;2022-08-03T07:32:09;97625.50;;;24.83;72.59
15932;BME280;8065;49.520;11.284;2022-08-03T07:34:35;97616.13;;;24.88;72.35
15932;BME280;8065;49.520;11.284;2022-08-03T07:37:02;97612.16;;;24.92;72.28
15932;BME280;8065;49.520;11.284;2022-08-03T07:39:29;97618.25;;;25.03;71.95
15932;BME280;8065;49.520;11.284;2022-08-03T07:41:57;97618.16;;;25.10;71.01
15932;BME280;8065;49.520;11.284;2022-08-03T07:44:23;97615.31;;;25.17;71.19
15932;BME280;8065;49.520;11.284;2022-08-03T07:46:50;97612.84;;;25.27;71.34
15932;BME280;8065;49.520;11.284;2022-08-03T07:49:16;97620.91;;;25.34;70.70
15932;BME280;8065;49.520;11.284;2022-08-03T07:51:43;97619.25;;;25.40;70.58
15932;BME280;8065;49.520;11.284;2022-08-03T07:54:09;97615.25;;;25.48;70.43
15932;BME280;8065;49.520;11.284;2022-08-03T07:56:36;97613.53;;;25.58;69.92
15932;BME280;8065;49.520;11.284;2022-08-03T07:59:04;97617.31;;;25.67;69.75
15932;BME280;8065;49.520;11.284;2022-08-03T08:01:30;97613.28;;;25.75;70.01
15932;BME280;8065;49.520;11.284;2022-08-03T08:04:00;97611.50;;;25.89;70.12
15932;BME280;8065;49.520;11.284;2022-08-03T08:06:27;97618.19;;;26.04;70.29
15932;BME280;8065;49.520;11.284;2022-08-03T08:08:53;97617.13;;;26.21;70.05
15932;BME280;8065;49.520;11.284;2022-08-03T08:11:23;97609.25;;;26.47;70.42
15932;BME280;8065;49.520;11.284;2022-08-03T08:13:50;97602.69;;;26.64;68.98
15932;BME280;8065;49.520;11.284;2022-08-03T08:16:18;97615.00;;;26.88;68.20
15932;BME280;8065;49.520;11.284;2022-08-03T08:18:44;97613.25;;;26.98;67.57
15932;BME280;8065;49.520;11.284;2022-08-03T08:21:11;97603.72;;;27.06;67.14
15932;BME280;8065;49.520;11.284;2022-08-03T08:23:38;97603.16;;;27.15;67.02
15932;BME280;8065;49.520;11.284;2022-08-03T08:26:04;97595.47;;;27.26;66.42
15932;BME280;8065;49.520;11.284;2022-08-03T08:28:31;97592.94;;;27.35;66.16
15932;BME280;8065;49.520;11.284;2022-08-03T08:30:57;97589.78;;;27.53;66.81
15932;BME280;8065;49.520;11.284;2022-08-03T08:33:25;97589.03;;;27.68;66.42
15932;BME280;8065;49.520;11.284;2022-08-03T08:35:52;97595.72;;;27.80;64.39
15932;BME280;8065;49.520;11.284;2022-08-03T08:38:19;97592.88;;;28.00;64.63
15932;BME280;8065;49.520;11.284;2022-08-03T08:40:46;97590.38;;;28.22;63.31
15932;BME280;8065;49.520;11.284;2022-08-03T08:43:13;97588.19;;;28.29;61.33
15932;BME280;8065;49.520;11.284;2022-08-03T08:45:40;97584.84;;;28.38;59.93
15932;BME280;8065;49.520;11.284;2022-08-03T08:48:08;97585.75;;;28.48;60.69
15932;BME280;8065;49.520;11.284;2022-08-03T08:50:37;97578.63;;;28.63;61.63
15932;BME280;8065;49.520;11.284;2022-08-03T08:53:06;97582.91;;;28.77;61.41
15932;BME280;8065;49.520;11.284;2022-08-03T08:55:33;97583.19;;;28.82;61.14
15932;BME280;8065;49.520;11.284;2022-08-03T08:58:04;97583.63;;;28.93;61.08
15932;BME280;8065;49.520;11.284;2022-08-03T09:00:31;97585.28;;;29.03;59.30
15932;BME280;8065;49.520;11.284;2022-08-03T09:02:59;97575.41;;;28.93;57.53
15932;BME280;8065;49.520;11.284;2022-08-03T09:05:28;97575.31;;;29.10;58.30
15932;BME280;8065;49.520;11.284;2022-08-03T09:07:58;97577.25;;;29.34;56.91
15932;BME280;8065;49.520;11.284;2022-08-03T09:10:25;97572.84;;;29.50;54.71
15932;BME280;8065;49.520;11.284;2022-08-03T09:12:52;97576.38;;;29.50;53.29
15932;BME280;8065;49.520;11.284;2022-08-03T09:15:21;97572.50;;;29.60;54.09
15932;BME280;8065;49.520;11.284;2022-08-03T09:17:48;97563.25;;;29.80;54.33
15932;BME280;8065;49.520;11.284;2022-08-03T09:20:16;97568.03;;;30.01;54.35
15932;BME280;8065;49.520;11.284;2022-08-03T09:22:58;97562.94;;;30.12;53.73
15932;BME280;8065;49.520;11.284;2022-08-03T09:25:30;97563.94;;;30.27;54.44
15932;BME280;8065;49.520;11.284;2022-08-03T09:28:04;97563.97;;;30.37;50.85
15932;BME280;8065;49.520;11.284;2022-08-03T09:30:31;97563.28;;;30.67;52.23
15932;BME280;8065;49.520;11.284;2022-08-03T09:32:59;97552.81;;;30.53;50.35
15932;BME280;8065;49.520;11.284;2022-08-03T09:35:26;97570.16;;;30.72;51.59
15932;BME280;8065;49.520;11.284;2022-08-03T09:38:10;97557.88;;;30.85;51.07
15932;BME280;8065;49.520;11.284;2022-08-03T09:40:37;97561.59;;;31.01;51.27
15932;BME280;8065;49.520;11.284;2022-08-03T09:43:04;97567.78;;;31.14;51.72
15932;BME280;8065;49.520;11.284;2022-08-03T09:45:33;97557.25;;;31.21;50.76
15932;BME280;8065;49.520;11.284;2022-08-03T09:48:19;97544.59;;;31.24;49.32
15932;BME280;8065;49.520;11.284;2022-08-03T09:50:49;97563.22;;;31.29;49.53
15932;BME280;8065;49.520;11.284;2022-08-03T09:53:18;97555.72;;;31.20;49.56
15932;BME280;8065;49.520;11.284;2022-08-03T09:55:52;97555.00;;;31.38;50.69
15932;BME280;8065;49.520;11.284;2022-08-03T09:58:19;97548.31;;;31.48;49.94
15932;BME280;8065;49.520;11.284;2022-08-03T10:00:57;97559.47;;;31.63;48.79
15932;BME280;8065;49.520;11.284;2022-08-03T10:03:25;97545.91;;;31.69;47.57
15932;BME280;8065;49.520;11.284;2022-08-03T10:05:52;97553.88;;;31.76;47.38
15932;BME280;8065;49.520;11.284;2022-08-03T10:08:21;97545.16;;;31.86;48.42
15932;BME280;8065;49.520;11.284;2022-08-03T10:10:50;97548.38;;;31.94;46.81
15932;BME280;8065;49.520;11.284;2022-08-03T10:13:19;97537.38;;;31.94;46.08
15932;BME280;8065;49.520;11.284;2022-08-03T10:15:46;97539.19;;;32.24;46.88
15932;BME280;8065;49.520;11.284;2022-08-03T10:18:13;97529.69;;;32.35;45.27
15932;BME280;8065;49.520;11.284;2022-08-03T10:20:43;97531.66;;;32.43;45.63
15932;BME280;8065;49.520;11.284;2022-08-03T10:23:11;97534.03;;;32.59;45.60
15932;BME280;8065;49.520;11.284;2022-08-03T10:25:43;97519.97;;;32.57;42.13
15932;BME280;8065;49.520;11.284;2022-08-03T10:28:14;97525.97;;;32.47;42.04
15932;BME280;8065;49.520;11.284;2022-08-03T10:30:44;97522.59;;;32.52;42.26
15932;BME280;8065;49.520;11.284;2022-08-03T10:33:16;97523.19;;;32.65;42.64
15932;BME280;8065;49.520;11.284;2022-08-03T10:35:45;97517.97;;;32.76;42.34
15932;BME280;8065;49.520;11.284;2022-08-03T10:38:17;97517.00;;;32.88;42.29
15932;BME280;8065;49.520;11.284;2022-08-03T10:40:49;97508.06;;;32.94;42.29
15932;BME280;8065;49.520;11.284;2022-08-03T10:43:20;97516.28;;;33.03;42.38
15932;BME280;8065;49.520;11.284;2022-08-03T10:45:48;97516.53;;;33.14;42.92
15932;BME280;8065;49.520;11.284;2022-08-03T10:48:16;97506.56;;;32.93;40.87
15932;BME280;8065;49.520;11.284;2022-08-03T10:50:43;97502.94;;;32.86;39.87
15932;BME280;8065;49.520;11.284;2022-08-03T10:53:09;97506.19;;;33.00;40.61
15932;BME280;8065;49.520;11.284;2022-08-03T10:55:37;97498.81;;;33.06;40.39
15932;BME280;8065;49.520;11.284;2022-08-03T10:58:48;97501.34;;;33.18;40.49
15932;BME280;8065;49.520;11.284;2022-08-03T11:01:15;97494.13;;;33.21;39.99
15932;BME280;8065;49.520;11.284;2022-08-03T11:04:13;97493.47;;;33.35;41.09
15932;BME280;8065;49.520;11.284;2022-08-03T11:06:40;97495.06;;;33.66;41.60
15932;BME280;8065;49.520;11.284;2022-08-03T11:09:15;97495.09;;;33.80;40.83
15932;BME280;8065;49.520;11.284;2022-08-03T11:11:43;97485.50;;;33.76;40.59
15932;BME280;8065;49.520;11.284;2022-08-03T11:14:13;97478.47;;;33.75;40.09
15932;BME280;8065;49.520;11.284;2022-08-03T11:16:43;97482.84;;;33.96;40.97
15932;BME280;8065;49.520;11.284;2022-08-03T11:19:12;97483.72;;;34.02;40.38
15932;BME280;8065;49.520;11.284;2022-08-03T11:21:53;97478.88;;;33.97;40.67
15932;BME280;8065;49.520;11.284;2022-08-03T11:27:36;97470.97;;;33.90;39.76
15932;BME280;8065;49.520;11.284;2022-08-03T11:30:06;97466.78;;;34.09;39.92
15932;BME280;8065;49.520;11.284;2022-08-03T11:32:53;97460.59;;;34.00;39.54
15932;BME280;8065;49.520;11.284;2022-08-03T11:35:23;97463.94;;;33.50;39.60
15932;BME280;8065;49.520;11.284;2022-08-03T11:38:07;97473.38;;;33.59;39.62
15932;BME280;8065;49.520;11.284;2022-08-03T11:40:40;97458.22;;;33.78;39.42
15932;BME280;8065;49.520;11.284;2022-08-03T11:43:09;97458.59;;;34.00;40.04
15932;BME280;8065;49.520;11.284;2022-08-03T11:45:37;97450.78;;;34.28;40.45
15932;BME280;8065;49.520;11.284;2022-08-03T11:48:14;97452.78;;;34.28;39.28
15932;BME280;8065;49.520;11.284;2022-08-03T11:50:42;97458.81;;;34.41;39.61
15932;BME280;8065;49.520;11.284;2022-08-03T11:53:13;97463.19;;;34.33;38.79
15932;BME280;8065;49.520;11.284;2022-08-03T11:55:40;97449.19;;;34.51;38.29
15932;BME280;8065;49.520;11.284;2022-08-03T11:58:14;97441.06;;;34.62;38.72
15932;BME280;8065;49.520;11.284;2022-08-03T12:00:42;97442.63;;;34.69;38.35
15932;BME280;8065;49.520;11.284;2022-08-03T12:03:10;97443.69;;;34.71;38.86
15932;BME280;8065;49.520;11.284;2022-08-03T12:05:43;97443.97;;;34.73;38.39
15932;BME280;8065;49.520;11.284;2022-08-03T12:08:13;97451.53;;;34.58;37.31
15932;BME280;8065;49.520;11.284;2022-08-03T12:10:45;97433.06;;;34.64;38.02
15932;BME280;8065;49.520;11.284;2022-08-03T12:13:12;97442.13;;;34.50;37.89
15932;BME280;8065;49.520;11.284;2022-08-03T12:15:39;97434.25;;;34.43;38.21
15932;BME280;8065;49.520;11.284;2022-08-03T12:18:16;97437.75;;;34.58;37.84
15932;BME280;8065;49.520;11.284;2022-08-03T12:20:45;97434.41;;;34.54;38.51
15932;BME280;8065;49.520;11.284;2022-08-03T12:23:12;97435.94;;;34.55;37.51
15932;BME280;8065;49.520;11.284;2022-08-03T12:25:40;97437.06;;;34.63;37.18
15932;BME280;8065;49.520;11.284;2022-08-03T12:28:13;97438.44;;;34.73;38.01
15932;BME280;8065;49.520;11.284;2022-08-03T12:30:42;97430.97;;;34.59;36.88
15932;BME280;8065;49.520;11.284;2022-08-03T12:33:19;97426.03;;;34.48;37.07
15932;BME280;8065;49.520;11.284;2022-08-03T12:35:47;97424.63;;;34.73;37.33
15932;BME280;8065;49.520;11.284;2022-08-03T12:38:19;97420.38;;;34.93;37.86
15932;BME280;8065;49.520;11.284;2022-08-03T12:40:57;97420.81;;;35.06;37.61
15932;BME280;8065;49.520;11.284;2022-08-03T12:43:24;97415.00;;;35.04;37.71
15932;BME280;8065;49.520;11.284;2022-08-03T12:45:51;97418.75;;;35.21;37.25
15932;BME280;8065;49.520;11.284;2022-08-03T12:48:19;97408.59;;;35.33;36.69
15932;BME280;8065;49.520;11.284;2022-08-03T12:50:45;97410.72;;;35.43;36.98
15932;BME280;8065;49.520;11.284;2022-08-03T12:53:27;97406.00;;;35.50;37.23
15932;BME280;8065;49.520;11.284;2022-08-03T12:56:00;97412.66;;;35.37;37.14
15932;BME280;8065;49.520;11.284;2022-08-03T12:58:31;97402.63;;;35.66;37.35
15932;BME280;8065;49.520;11.284;2022-08-03T13:01:01;97407.84;;;35.32;36.90
15932;BME280;8065;49.520;11.284;2022-08-03T13:03:38;97395.94;;;35.46;37.02
15932;BME280;8065;49.520;11.284;2022-08-03T13:06:10;97398.56;;;35.35;37.13
15932;BME280;8065;49.520;11.284;2022-08-03T13:08:37;97404.72;;;35.25;36.13
15932;BME280;8065;49.520;11.284;2022-08-03T13:11:20;97391.25;;;35.12;36.47
15932;BME280;8065;49.520;11.284;2022-08-03T13:13:47;97389.72;;;35.31;36.71